Terminal Aerodrome Forecast
Issued by NWS Central Illinois

Home | Current Version | Previous Version | Text Only | Print | Product List | Glossary On
Versions: 1 2 3 4 5 6 7 8 9 10 11 12 13 14
565
FTUS43 KILX 081747
TAFPIA
TAF
KPIA 081747Z 0818/0918 31014G20KT 3SM -SN BR OVC025
     FM081900 31014G20KT 5SM -SN BR OVC025
     FM082200 31013KT P6SM VCSH OVC015
     FM090500 31012KT 5SM -SN BR OVC015
     FM091500 31014G20KT P6SM OVC025=

USA.gov is the U.S. government's official web portal to all federal, state and local government web resources and services.